sensor_id;sensor_type;location;lat;lon;timestamp;temperature;humidity
71523;HTU21D;59343;51.102;5.884;2022-10-17T00:01:47;16.84;83.44
71523;HTU21D;59343;51.102;5.884;2022-10-17T00:04:12;16.82;83.46
71523;HTU21D;59343;51.102;5.884;2022-10-17T00:06:38;16.81;83.37
71523;HTU21D;59343;51.102;5.884;2022-10-17T00:09:04;16.80;83.45
71523;HTU21D;59343;51.102;5.884;2022-10-17T00:11:30;16.80;83.54
71523;HTU21D;59343;51.102;5.884;2022-10-17T00:13:56;16.81;83.65
71523;HTU21D;59343;51.102;5.884;2022-10-17T00:16:28;16.81;83.65
71523;HTU21D;59343;51.102;5.884;2022-10-17T00:18:55;16.79;83.69
71523;HTU21D;59343;51.102;5.884;2022-10-17T00:21:22;16.79;83.70
71523;HTU21D;59343;51.102;5.884;2022-10-17T00:23:49;16.79;83.74
71523;HTU21D;59343;51.102;5.884;2022-10-17T00:26:15;16.78;83.81
71523;HTU21D;59343;51.102;5.884;2022-10-17T00:28:41;16.78;83.87
71523;HTU21D;59343;51.102;5.884;2022-10-17T00:31:09;16.77;83.83
71523;HTU21D;59343;51.102;5.884;2022-10-17T00:33:35;16.76;83.83
71523;HTU21D;59343;51.102;5.884;2022-10-17T00:36:22;16.76;83.74
71523;HTU21D;59343;51.102;5.884;2022-10-17T00:38:52;16.74;83.83
71523;HTU21D;59343;51.102;5.884;2022-10-17T00:41:22;16.71;83.94
71523;HTU21D;59343;51.102;5.884;2022-10-17T00:43:58;16.70;84.05
71523;HTU21D;59343;51.102;5.884;2022-10-17T00:46:32;16.69;84.12
71523;HTU21D;59343;51.102;5.884;2022-10-17T00:49:03;16.66;84.18
71523;HTU21D;59343;51.102;5.884;2022-10-17T00:51:37;16.66;84.23
71523;HTU21D;59343;51.102;5.884;2022-10-17T00:54:07;16.66;84.26
71523;HTU21D;59343;51.102;5.884;2022-10-17T00:56:34;16.66;84.32
71523;HTU21D;59343;51.102;5.884;2022-10-17T00:59:01;16.66;84.29
71523;HTU21D;59343;51.102;5.884;2022-10-17T01:01:28;16.65;84.25
71523;HTU21D;59343;51.102;5.884;2022-10-17T01:03:54;16.64;84.22
71523;HTU21D;59343;51.102;5.884;2022-10-17T01:06:19;16.63;84.19
71523;HTU21D;59343;51.102;5.884;2022-10-17T01:08:45;16.63;84.20
71523;HTU21D;59343;51.102;5.884;2022-10-17T01:11:58;16.61;84.20
71523;HTU21D;59343;51.102;5.884;2022-10-17T01:17:12;16.60;84.26
71523;HTU21D;59343;51.102;5.884;2022-10-17T01:22:18;16.58;84.33
71523;HTU21D;59343;51.102;5.884;2022-10-17T01:25:26;16.58;84.40
71523;HTU21D;59343;51.102;5.884;2022-10-17T01:27:50;16.57;84.47
71523;HTU21D;59343;51.102;5.884;2022-10-17T01:30:49;16.57;84.50
71523;HTU21D;59343;51.102;5.884;2022-10-17T01:33:29;16.58;84.45
71523;HTU21D;59343;51.102;5.884;2022-10-17T01:36:11;16.56;84.47
71523;HTU21D;59343;51.102;5.884;2022-10-17T01:38:52;16.57;84.35
71523;HTU21D;59343;51.102;5.884;2022-10-17T01:43:58;16.57;84.35
71523;HTU21D;59343;51.102;5.884;2022-10-17T01:46:36;16.55;84.34
71523;HTU21D;59343;51.102;5.884;2022-10-17T01:49:05;16.56;84.31
71523;HTU21D;59343;51.102;5.884;2022-10-17T01:51:53;16.55;84.29
71523;HTU21D;59343;51.102;5.884;2022-10-17T01:57:00;16.54;84.05
71523;HTU21D;59343;51.102;5.884;2022-10-17T01:59:41;16.51;84.07
71523;HTU21D;59343;51.102;5.884;2022-10-17T02:02:10;16.50;84.28
71523;HTU21D;59343;51.102;5.884;2022-10-17T02:04:39;16.52;84.38
71523;HTU21D;59343;51.102;5.884;2022-10-17T02:07:11;16.51;84.33
71523;HTU21D;59343;51.102;5.884;2022-10-17T02:09:38;16.55;84.45
71523;HTU21D;59343;51.102;5.884;2022-10-17T02:20:09;16.66;85.06
71523;HTU21D;59343;51.102;5.884;2022-10-17T02:22:39;16.71;85.08
71523;HTU21D;59343;51.102;5.884;2022-10-17T02:25:29;16.73;85.22
71523;HTU21D;59343;51.102;5.884;2022-10-17T02:28:20;16.78;85.51
71523;HTU21D;59343;51.102;5.884;2022-10-17T02:36:06;16.87;85.76
71523;HTU21D;59343;51.102;5.884;2022-10-17T02:38:34;16.91;85.93
71523;HTU21D;59343;51.102;5.884;2022-10-17T02:41:03;16.93;86.12
71523;HTU21D;59343;51.102;5.884;2022-10-17T02:43:30;16.94;86.35
71523;HTU21D;59343;51.102;5.884;2022-10-17T02:45:57;16.98;86.45
71523;HTU21D;59343;51.102;5.884;2022-10-17T02:48:33;17.02;86.49
71523;HTU21D;59343;51.102;5.884;2022-10-17T02:56:38;17.09;86.35
71523;HTU21D;59343;51.102;5.884;2022-10-17T02:59:10;17.10;86.44
71523;HTU21D;59343;51.102;5.884;2022-10-17T03:01:37;17.13;86.51
71523;HTU21D;59343;51.102;5.884;2022-10-17T03:04:06;17.14;86.61
71523;HTU21D;59343;51.102;5.884;2022-10-17T03:06:32;17.15;86.63
71523;HTU21D;59343;51.102;5.884;2022-10-17T03:08:58;17.16;86.67
71523;HTU21D;59343;51.102;5.884;2022-10-17T03:11:24;17.16;86.69
71523;HTU21D;59343;51.102;5.884;2022-10-17T03:13:50;17.19;86.64
71523;HTU21D;59343;51.102;5.884;2022-10-17T03:16:16;17.19;86.62
71523;HTU21D;59343;51.102;5.884;2022-10-17T03:18:42;17.20;86.59
71523;HTU21D;59343;51.102;5.884;2022-10-17T03:21:08;17.21;86.58
71523;HTU21D;59343;51.102;5.884;2022-10-17T03:23:34;17.23;86.53
71523;HTU21D;59343;51.102;5.884;2022-10-17T03:26:04;17.21;86.51
71523;HTU21D;59343;51.102;5.884;2022-10-17T03:28:30;17.24;86.51
71523;HTU21D;59343;51.102;5.884;2022-10-17T03:30:56;17.26;86.31
71523;HTU21D;59343;51.102;5.884;2022-10-17T03:33:22;17.26;86.33
71523;HTU21D;59343;51.102;5.884;2022-10-17T03:35:49;17.30;86.34
71523;HTU21D;59343;51.102;5.884;2022-10-17T03:38:16;17.33;86.12
71523;HTU21D;59343;51.102;5.884;2022-10-17T03:40:42;17.33;86.25
71523;HTU21D;59343;51.102;5.884;2022-10-17T03:43:08;17.33;86.31
71523;HTU21D;59343;51.102;5.884;2022-10-17T03:45:37;17.35;86.36
71523;HTU21D;59343;51.102;5.884;2022-10-17T03:48:03;17.37;86.35
71523;HTU21D;59343;51.102;5.884;2022-10-17T03:50:29;17.39;86.29
71523;HTU21D;59343;51.102;5.884;2022-10-17T03:52:56;17.40;86.16
71523;HTU21D;59343;51.102;5.884;2022-10-17T03:55:23;17.43;85.99
71523;HTU21D;59343;51.102;5.884;2022-10-17T03:57:49;17.41;85.94
71523;HTU21D;59343;51.102;5.884;2022-10-17T04:00:18;17.41;85.85
71523;HTU21D;59343;51.102;5.884;2022-10-17T04:02:52;17.41;85.77
71523;HTU21D;59343;51.102;5.884;2022-10-17T04:05:18;17.44;85.68
71523;HTU21D;59343;51.102;5.884;2022-10-17T04:07:45;17.43;85.64
71523;HTU21D;59343;51.102;5.884;2022-10-17T04:10:11;17.43;85.67
71523;HTU21D;59343;51.102;5.884;2022-10-17T04:12:38;17.43;85.59
71523;HTU21D;59343;51.102;5.884;2022-10-17T04:15:05;17.45;85.47
71523;HTU21D;59343;51.102;5.884;2022-10-17T04:17:31;17.46;85.36
71523;HTU21D;59343;51.102;5.884;2022-10-17T04:19:57;17.47;85.35
71523;HTU21D;59343;51.102;5.884;2022-10-17T04:22:23;17.48;85.34
71523;HTU21D;59343;51.102;5.884;2022-10-17T04:24:49;17.49;85.35
71523;HTU21D;59343;51.102;5.884;2022-10-17T04:27:35;17.50;85.31
71523;HTU21D;59343;51.102;5.884;2022-10-17T04:30:01;17.52;85.31
71523;HTU21D;59343;51.102;5.884;2022-10-17T04:32:29;17.52;85.39
71523;HTU21D;59343;51.102;5.884;2022-10-17T04:35:03;17.52;85.51
71523;HTU21D;59343;51.102;5.884;2022-10-17T04:37:30;17.52;85.58
71523;HTU21D;59343;51.102;5.884;2022-10-17T04:39:58;17.55;85.51
71523;HTU21D;59343;51.102;5.884;2022-10-17T04:42:29;17.56;85.45
71523;HTU21D;59343;51.102;5.884;2022-10-17T04:44:55;17.59;85.50
71523;HTU21D;59343;51.102;5.884;2022-10-17T04:47:23;17.60;85.56
71523;HTU21D;59343;51.102;5.884;2022-10-17T04:49:49;17.62;85.43
71523;HTU21D;59343;51.102;5.884;2022-10-17T04:52:15;17.65;85.46
71523;HTU21D;59343;51.102;5.884;2022-10-17T04:54:43;17.65;85.48
71523;HTU21D;59343;51.102;5.884;2022-10-17T04:57:12;17.67;85.50
71523;HTU21D;59343;51.102;5.884;2022-10-17T04:59:39;17.70;85.45
71523;HTU21D;59343;51.102;5.884;2022-10-17T05:02:22;17.70;85.42
71523;HTU21D;59343;51.102;5.884;2022-10-17T05:04:49;17.72;85.35
71523;HTU21D;59343;51.102;5.884;2022-10-17T05:07:15;17.72;85.32
71523;HTU21D;59343;51.102;5.884;2022-10-17T05:10:00;17.70;85.29
71523;HTU21D;59343;51.102;5.884;2022-10-17T05:12:28;17.70;85.26
71523;HTU21D;59343;51.102;5.884;2022-10-17T05:14:54;17.72;85.26
71523;HTU21D;59343;51.102;5.884;2022-10-17T05:17:21;17.72;85.20
71523;HTU21D;59343;51.102;5.884;2022-10-17T05:19:47;17.72;85.15
71523;HTU21D;59343;51.102;5.884;2022-10-17T05:22:13;17.73;85.11
71523;HTU21D;59343;51.102;5.884;2022-10-17T05:24:40;17.73;85.06
71523;HTU21D;59343;51.102;5.884;2022-10-17T05:27:07;17.73;85.05
71523;HTU21D;59343;51.102;5.884;2022-10-17T05:29:33;17.73;85.09
71523;HTU21D;59343;51.102;5.884;2022-10-17T05:32:07;17.74;85.08
71523;HTU21D;59343;51.102;5.884;2022-10-17T05:34:34;17.74;85.08
71523;HTU21D;59343;51.102;5.884;2022-10-17T05:37:00;17.76;85.00
71523;HTU21D;59343;51.102;5.884;2022-10-17T05:39:26;17.77;84.91
71523;HTU21D;59343;51.102;5.884;2022-10-17T05:41:52;17.77;84.94
71523;HTU21D;59343;51.102;5.884;2022-10-17T05:44:18;17.79;84.89
71523;HTU21D;59343;51.102;5.884;2022-10-17T05:46:49;17.82;84.89
71523;HTU21D;59343;51.102;5.884;2022-10-17T05:49:16;17.84;84.75
71523;HTU21D;59343;51.102;5.884;2022-10-17T05:51:43;17.90;84.58
71523;HTU21D;59343;51.102;5.884;2022-10-17T05:54:09;17.91;84.48
71523;HTU21D;59343;51.102;5.884;2022-10-17T05:56:35;17.94;84.42
71523;HTU21D;59343;51.102;5.884;2022-10-17T05:59:01;17.97;84.32
71523;HTU21D;59343;51.102;5.884;2022-10-17T06:01:39;17.99;84.21
71523;HTU21D;59343;51.102;5.884;2022-10-17T06:04:05;18.03;84.08
71523;HTU21D;59343;51.102;5.884;2022-10-17T06:06:31;18.04;84.02
71523;HTU21D;59343;51.102;5.884;2022-10-17T06:08:57;18.06;84.00
71523;HTU21D;59343;51.102;5.884;2022-10-17T06:11:28;18.05;83.97
71523;HTU21D;59343;51.102;5.884;2022-10-17T06:13:54;18.05;83.85
71523;HTU21D;59343;51.102;5.884;2022-10-17T06:16:23;18.05;83.78
71523;HTU21D;59343;51.102;5.884;2022-10-17T06:18:49;18.05;83.80
71523;HTU21D;59343;51.102;5.884;2022-10-17T06:21:20;18.05;83.89
71523;HTU21D;59343;51.102;5.884;2022-10-17T06:23:49;18.06;83.84
71523;HTU21D;59343;51.102;5.884;2022-10-17T06:26:21;18.08;83.71
71523;HTU21D;59343;51.102;5.884;2022-10-17T06:28:47;18.10;83.67
71523;HTU21D;59343;51.102;5.884;2022-10-17T06:31:15;18.10;83.58
71523;HTU21D;59343;51.102;5.884;2022-10-17T06:33:42;18.13;83.45
71523;HTU21D;59343;51.102;5.884;2022-10-17T06:36:11;18.14;83.32
71523;HTU21D;59343;51.102;5.884;2022-10-17T06:38:38;18.18;83.22
71523;HTU21D;59343;51.102;5.884;2022-10-17T06:41:11;18.20;83.13
71523;HTU21D;59343;51.102;5.884;2022-10-17T06:43:40;18.22;83.04
71523;HTU21D;59343;51.102;5.884;2022-10-17T06:46:31;18.26;82.78
71523;HTU21D;59343;51.102;5.884;2022-10-17T06:49:04;18.28;82.61
71523;HTU21D;59343;51.102;5.884;2022-10-17T06:52:02;18.33;82.43
71523;HTU21D;59343;51.102;5.884;2022-10-17T06:54:38;18.35;82.28
71523;HTU21D;59343;51.102;5.884;2022-10-17T06:57:24;18.39;82.17
71523;HTU21D;59343;51.102;5.884;2022-10-17T07:00:02;18.40;82.13
71523;HTU21D;59343;51.102;5.884;2022-10-17T07:02:38;18.43;82.01
71523;HTU21D;59343;51.102;5.884;2022-10-17T07:05:04;18.46;81.98
71523;HTU21D;59343;51.102;5.884;2022-10-17T07:07:30;18.47;81.92
71523;HTU21D;59343;51.102;5.884;2022-10-17T07:09:57;18.50;81.75
71523;HTU21D;59343;51.102;5.884;2022-10-17T07:12:24;18.51;81.78
71523;HTU21D;59343;51.102;5.884;2022-10-17T07:14:50;18.51;81.62
71523;HTU21D;59343;51.102;5.884;2022-10-17T07:17:16;18.52;81.65
71523;HTU21D;59343;51.102;5.884;2022-10-17T07:19:44;18.55;81.52
71523;HTU21D;59343;51.102;5.884;2022-10-17T07:22:11;18.56;81.43
71523;HTU21D;59343;51.102;5.884;2022-10-17T07:24:40;18.61;81.27
71523;HTU21D;59343;51.102;5.884;2022-10-17T07:27:17;18.65;81.04
71523;HTU21D;59343;51.102;5.884;2022-10-17T07:29:43;18.70;80.79
71523;HTU21D;59343;51.102;5.884;2022-10-17T07:32:30;18.74;80.71
71523;HTU21D;59343;51.102;5.884;2022-10-17T07:34:58;18.82;80.33
71523;HTU21D;59343;51.102;5.884;2022-10-17T07:37:24;18.84;80.26
71523;HTU21D;59343;51.102;5.884;2022-10-17T07:39:53;18.93;79.88
71523;HTU21D;59343;51.102;5.884;2022-10-17T07:42:21;18.97;79.57
71523;HTU21D;59343;51.102;5.884;2022-10-17T07:44:48;19.02;79.54
71523;HTU21D;59343;51.102;5.884;2022-10-17T07:47:15;19.09;79.31
71523;HTU21D;59343;51.102;5.884;2022-10-17T07:49:41;19.18;78.92
71523;HTU21D;59343;51.102;5.884;2022-10-17T07:52:13;19.22;78.84
71523;HTU21D;59343;51.102;5.884;2022-10-17T07:54:39;19.28;78.58
71523;HTU21D;59343;51.102;5.884;2022-10-17T07:57:06;19.33;78.42
71523;HTU21D;59343;51.102;5.884;2022-10-17T07:59:32;19.42;78.11
71523;HTU21D;59343;51.102;5.884;2022-10-17T08:01:59;19.46;78.25
71523;HTU21D;59343;51.102;5.884;2022-10-17T08:04:26;19.54;77.71
71523;HTU21D;59343;51.102;5.884;2022-10-17T08:06:52;19.60;77.59
71523;HTU21D;59343;51.102;5.884;2022-10-17T08:09:18;19.69;77.21
71523;HTU21D;59343;51.102;5.884;2022-10-17T08:11:44;19.74;77.02
71523;HTU21D;59343;51.102;5.884;2022-10-17T08:14:12;19.79;76.86
71523;HTU21D;59343;51.102;5.884;2022-10-17T08:16:39;19.84;76.33
71523;HTU21D;59343;51.102;5.884;2022-10-17T08:19:05;19.86;76.24
71523;HTU21D;59343;51.102;5.884;2022-10-17T08:21:34;19.89;76.00
71523;HTU21D;59343;51.102;5.884;2022-10-17T08:24:00;19.94;76.04
71523;HTU21D;59343;51.102;5.884;2022-10-17T08:26:28;19.98;76.15
71523;HTU21D;59343;51.102;5.884;2022-10-17T08:28:54;20.05;75.69
71523;HTU21D;59343;51.102;5.884;2022-10-17T08:31:20;20.13;75.57
71523;HTU21D;59343;51.102;5.884;2022-10-17T08:33:47;20.24;75.82
71523;HTU21D;59343;51.102;5.884;2022-10-17T08:36:16;20.43;75.39
71523;HTU21D;59343;51.102;5.884;2022-10-17T08:38:43;20.61;74.54
71523;HTU21D;59343;51.102;5.884;2022-10-17T08:46:36;20.65;73.22
71523;HTU21D;59343;51.102;5.884;2022-10-17T08:49:11;20.59;73.29
71523;HTU21D;59343;51.102;5.884;2022-10-17T08:51:49;20.56;73.64
71523;HTU21D;59343;51.102;5.884;2022-10-17T08:54:21;20.50;73.86
71523;HTU21D;59343;51.102;5.884;2022-10-17T08:56:52;20.49;74.07
71523;HTU21D;59343;51.102;5.884;2022-10-17T08:59:28;20.46;74.01
71523;HTU21D;59343;51.102;5.884;2022-10-17T09:04:40;20.45;73.90
71523;HTU21D;59343;51.102;5.884;2022-10-17T09:07:17;20.42;73.84
71523;HTU21D;59343;51.102;5.884;2022-10-17T09:13:02;20.35;74.15
71523;HTU21D;59343;51.102;5.884;2022-10-17T09:15:42;20.33;74.12
71523;HTU21D;59343;51.102;5.884;2022-10-17T09:18:26;20.30;74.38
71523;HTU21D;59343;51.102;5.884;2022-10-17T09:23:52;20.25;74.47
71523;HTU21D;59343;51.102;5.884;2022-10-17T09:26:19;20.22;74.66
71523;HTU21D;59343;51.102;5.884;2022-10-17T09:28:53;20.18;74.86
71523;HTU21D;59343;51.102;5.884;2022-10-17T09:31:40;20.16;75.09
71523;HTU21D;59343;51.102;5.884;2022-10-17T09:34:09;20.17;75.13
71523;HTU21D;59343;51.102;5.884;2022-10-17T09:36:38;20.19;75.17
71523;HTU21D;59343;51.102;5.884;2022-10-17T09:39:18;20.25;74.91
71523;HTU21D;59343;51.102;5.884;2022-10-17T09:41:50;20.22;74.96
71523;HTU21D;59343;51.102;5.884;2022-10-17T09:44:39;20.25;75.13
71523;HTU21D;59343;51.102;5.884;2022-10-17T09:47:24;20.27;75.10
71523;HTU21D;59343;51.102;5.884;2022-10-17T09:49:53;20.29;74.96
71523;HTU21D;59343;51.102;5.884;2022-10-17T09:52:35;20.31;75.08
71523;HTU21D;59343;51.102;5.884;2022-10-17T09:57:58;20.39;75.09
71523;HTU21D;59343;51.102;5.884;2022-10-17T10:00:30;20.41;74.99
71523;HTU21D;59343;51.102;5.884;2022-10-17T10:03:20;20.43;74.95
71523;HTU21D;59343;51.102;5.884;2022-10-17T10:06:04;20.44;74.95
71523;HTU21D;59343;51.102;5.884;2022-10-17T10:11:06;20.42;74.73
71523;HTU21D;59343;51.102;5.884;2022-10-17T10:13:33;20.40;74.73
71523;HTU21D;59343;51.102;5.884;2022-10-17T10:18:52;20.28;76.03
71523;HTU21D;59343;51.102;5.884;2022-10-17T10:26:37;20.07;78.30
71523;HTU21D;59343;51.102;5.884;2022-10-17T10:31:46;20.04;79.21
71523;HTU21D;59343;51.102;5.884;2022-10-17T10:39:53;20.07;79.70
71523;HTU21D;59343;51.102;5.884;2022-10-17T10:42:38;20.12;79.70
71523;HTU21D;59343;51.102;5.884;2022-10-17T10:47:50;20.25;79.33
71523;HTU21D;59343;51.102;5.884;2022-10-17T10:50:31;20.29;79.14
71523;HTU21D;59343;51.102;5.884;2022-10-17T10:55:55;20.30;79.16
71523;HTU21D;59343;51.102;5.884;2022-10-17T10:59:02;20.26;79.24
71523;HTU21D;59343;51.102;5.884;2022-10-17T11:09:53;20.15;79.08
71523;HTU21D;59343;51.102;5.884;2022-10-17T11:12:25;20.10;79.13
71523;HTU21D;59343;51.102;5.884;2022-10-17T11:15:22;20.07;79.24
71523;HTU21D;59343;51.102;5.884;2022-10-17T11:17:59;20.04;79.49
71523;HTU21D;59343;51.102;5.884;2022-10-17T11:20:49;20.00;79.69
71523;HTU21D;59343;51.102;5.884;2022-10-17T11:23:39;19.98;80.15
71523;HTU21D;59343;51.102;5.884;2022-10-17T11:26:26;19.98;80.22
71523;HTU21D;59343;51.102;5.884;2022-10-17T11:28:54;19.97;80.35
71523;HTU21D;59343;51.102;5.884;2022-10-17T11:31:36;19.95;80.17
71523;HTU21D;59343;51.102;5.884;2022-10-17T11:34:15;19.94;80.10
71523;HTU21D;59343;51.102;5.884;2022-10-17T11:36:49;19.91;80.15
71523;HTU21D;59343;51.102;5.884;2022-10-17T11:39:43;19.95;80.16
71523;HTU21D;59343;51.102;5.884;2022-10-17T11:42:35;19.92;80.33
71523;HTU21D;59343;51.102;5.884;2022-10-17T11:45:11;19.90;80.30
71523;HTU21D;59343;51.102;5.884;2022-10-17T11:48:40;19.94;80.37
71523;HTU21D;59343;51.102;5.884;2022-10-17T11:50:51;19.96;80.11
71523;HTU21D;59343;51.102;5.884;2022-10-17T11:53:24;19.97;80.17
71523;HTU21D;59343;51.102;5.884;2022-10-17T11:55:53;19.97;80.08
71523;HTU21D;59343;51.102;5.884;2022-10-17T12:07:33;20.03;80.51
71523;HTU21D;59343;51.102;5.884;2022-10-17T12:10:14;20.03;80.62
71523;HTU21D;59343;51.102;5.884;2022-10-17T12:12:42;20.06;80.56
71523;HTU21D;59343;51.102;5.884;2022-10-17T12:17:43;20.09;80.41
71523;HTU21D;59343;51.102;5.884;2022-10-17T12:22:51;20.14;80.27
71523;HTU21D;59343;51.102;5.884;2022-10-17T12:27:47;20.16;80.09
71523;HTU21D;59343;51.102;5.884;2022-10-17T12:30:25;20.14;79.99
71523;HTU21D;59343;51.102;5.884;2022-10-17T12:33:31;20.14;79.94
71523;HTU21D;59343;51.102;5.884;2022-10-17T12:39:39;20.14;79.87
71523;HTU21D;59343;51.102;5.884;2022-10-17T13:00:02;20.26;78.99
71523;HTU21D;59343;51.102;5.884;2022-10-17T13:02:30;20.26;78.91
71523;HTU21D;59343;51.102;5.884;2022-10-17T13:05:11;20.29;78.77
71523;HTU21D;59343;51.102;5.884;2022-10-17T13:07:41;20.29;78.95
71523;HTU21D;59343;51.102;5.884;2022-10-17T13:10:21;20.32;78.88
71523;HTU21D;59343;51.102;5.884;2022-10-17T13:12:49;20.34;78.78
71523;HTU21D;59343;51.102;5.884;2022-10-17T13:15:18;20.35;78.81
71523;HTU21D;59343;51.102;5.884;2022-10-17T13:17:58;20.36;78.93
71523;HTU21D;59343;51.102;5.884;2022-10-17T13:20:27;20.36;78.88
71523;HTU21D;59343;51.102;5.884;2022-10-17T13:22:55;20.36;78.87
71523;HTU21D;59343;51.102;5.884;2022-10-17T13:25:23;20.41;78.78
71523;HTU21D;59343;51.102;5.884;2022-10-17T13:28:03;20.41;78.96
71523;HTU21D;59343;51.102;5.884;2022-10-17T13:30:32;20.43;79.06
71523;HTU21D;59343;51.102;5.884;2022-10-17T13:32:59;20.44;79.13
71523;HTU21D;59343;51.102;5.884;2022-10-17T13:35:35;20.47;79.05
71523;HTU21D;59343;51.102;5.884;2022-10-17T13:38:05;20.47;79.07
71523;HTU21D;59343;51.102;5.884;2022-10-17T13:40:41;20.49;79.02
71523;HTU21D;59343;51.102;5.884;2022-10-17T13:43:18;20.48;79.04
71523;HTU21D;59343;51.102;5.884;2022-10-17T13:45:51;20.47;79.10
71523;HTU21D;59343;51.102;5.884;2022-10-17T13:48:26;20.48;79.16
71523;HTU21D;59343;51.102;5.884;2022-10-17T13:50:56;20.47;79.30
71523;HTU21D;59343;51.102;5.884;2022-10-17T13:53:32;20.48;79.39
71523;HTU21D;59343;51.102;5.884;2022-10-17T13:56:26;20.50;79.28
71523;HTU21D;59343;51.102;5.884;2022-10-17T13:58:52;20.49;79.37
71523;HTU21D;59343;51.102;5.884;2022-10-17T14:01:22;20.47;79.36
71523;HTU21D;59343;51.102;5.884;2022-10-17T14:03:49;20.47;79.48
71523;HTU21D;59343;51.102;5.884;2022-10-17T14:06:24;20.45;79.59
71523;HTU21D;59343;51.102;5.884;2022-10-17T14:11:22;20.45;79.71
71523;HTU21D;59343;51.102;5.884;2022-10-17T14:13:52;20.45;79.82
71523;HTU21D;59343;51.102;5.884;2022-10-17T14:16:20;20.44;79.92
71523;HTU21D;59343;51.102;5.884;2022-10-17T14:18:48;20.44;80.07
71523;HTU21D;59343;51.102;5.884;2022-10-17T14:21:24;20.43;80.08
71523;HTU21D;59343;51.102;5.884;2022-10-17T14:26:55;20.46;80.29
71523;HTU21D;59343;51.102;5.884;2022-10-17T14:29:30;20.47;80.39
71523;HTU21D;59343;51.102;5.884;2022-10-17T14:32:05;20.48;80.52
71523;HTU21D;59343;51.102;5.884;2022-10-17T14:34:39;20.45;80.64
71523;HTU21D;59343;51.102;5.884;2022-10-17T14:37:17;20.41;80.74
71523;HTU21D;59343;51.102;5.884;2022-10-17T14:39:52;20.36;81.05
71523;HTU21D;59343;51.102;5.884;2022-10-17T14:42:21;20.35;81.25
71523;HTU21D;59343;51.102;5.884;2022-10-17T14:44:50;20.33;81.40
71523;HTU21D;59343;51.102;5.884;2022-10-17T14:47:20;20.30;81.63
71523;HTU21D;59343;51.102;5.884;2022-10-17T14:50:01;20.28;81.75
71523;HTU21D;59343;51.102;5.884;2022-10-17T14:52:29;20.27;81.97
71523;HTU21D;59343;51.102;5.884;2022-10-17T14:54:57;20.25;82.17
71523;HTU21D;59343;51.102;5.884;2022-10-17T14:59:59;20.18;82.38
71523;HTU21D;59343;51.102;5.884;2022-10-17T15:02:27;20.16;82.53
71523;HTU21D;59343;51.102;5.884;2022-10-17T15:04:53;20.12;82.87
71523;HTU21D;59343;51.102;5.884;2022-10-17T15:07:20;20.07;83.19
71523;HTU21D;59343;51.102;5.884;2022-10-17T15:09:48;20.07;83.28
71523;HTU21D;59343;51.102;5.884;2022-10-17T15:12:17;20.06;83.53
71523;HTU21D;59343;51.102;5.884;2022-10-17T15:14:44;20.03;83.67
71523;HTU21D;59343;51.102;5.884;2022-10-17T15:17:24;20.01;83.71
71523;HTU21D;59343;51.102;5.884;2022-10-17T15:19:50;19.96;83.79
71523;HTU21D;59343;51.102;5.884;2022-10-17T15:22:16;19.92;83.87
71523;HTU21D;59343;51.102;5.884;2022-10-17T15:24:43;19.88;84.01
71523;HTU21D;59343;51.102;5.884;2022-10-17T15:27:19;19.87;84.18
71523;HTU21D;59343;51.102;5.884;2022-10-17T15:29:46;19.86;84.16
71523;HTU21D;59343;51.102;5.884;2022-10-17T15:32:13;19.85;84.26
71523;HTU21D;59343;51.102;5.884;2022-10-17T15:34:40;19.84;84.27
71523;HTU21D;59343;51.102;5.884;2022-10-17T15:37:17;19.85;84.18
71523;HTU21D;59343;51.102;5.884;2022-10-17T15:39:48;19.89;84.00
71523;HTU21D;59343;51.102;5.884;2022-10-17T15:42:18;19.88;83.97
71523;HTU21D;59343;51.102;5.884;2022-10-17T15:44:44;19.87;83.96
71523;HTU21D;59343;51.102;5.884;2022-10-17T15:47:26;19.86;83.97
71523;HTU21D;59343;51.102;5.884;2022-10-17T15:49:53;19.86;83.97
71523;HTU21D;59343;51.102;5.884;2022-10-17T15:52:21;19.85;83.94
71523;HTU21D;59343;51.102;5.884;2022-10-17T15:54:47;19.82;83.78
71523;HTU21D;59343;51.102;5.884;2022-10-17T15:57:22;19.80;83.81
71523;HTU21D;59343;51.102;5.884;2022-10-17T15:59:50;19.75;84.05
71523;HTU21D;59343;51.102;5.884;2022-10-17T16:02:18;19.72;84.10
71523;HTU21D;59343;51.102;5.884;2022-10-17T16:04:46;19.70;84.26
71523;HTU21D;59343;51.102;5.884;2022-10-17T16:07:13;19.70;84.42
71523;HTU21D;59343;51.102;5.884;2022-10-17T16:09:39;19.69;84.32
71523;HTU21D;59343;51.102;5.884;2022-10-17T16:12:09;19.71;84.22
71523;HTU21D;59343;51.102;5.884;2022-10-17T16:14:36;19.73;84.12
71523;HTU21D;59343;51.102;5.884;2022-10-17T16:17:01;19.74;84.00
71523;HTU21D;59343;51.102;5.884;2022-10-17T16:19:27;19.74;83.84
71523;HTU21D;59343;51.102;5.884;2022-10-17T16:21:55;19.72;83.83
71523;HTU21D;59343;51.102;5.884;2022-10-17T16:24:23;19.72;83.86
71523;HTU21D;59343;51.102;5.884;2022-10-17T16:26:50;19.72;83.78
71523;HTU21D;59343;51.102;5.884;2022-10-17T16:29:16;19.71;83.74
71523;HTU21D;59343;51.102;5.884;2022-10-17T16:31:43;19.69;83.74
71523;HTU21D;59343;51.102;5.884;2022-10-17T16:34:14;19.67;83.82
71523;HTU21D;59343;51.102;5.884;2022-10-17T16:36:41;19.65;83.78
71523;HTU21D;59343;51.102;5.884;2022-10-17T16:39:07;19.63;83.76
71523;HTU21D;59343;51.102;5.884;2022-10-17T16:41:35;19.59;83.74
71523;HTU21D;59343;51.102;5.884;2022-10-17T16:44:07;19.57;83.67
71523;HTU21D;59343;51.102;5.884;2022-10-17T16:46:35;19.52;83.83
71523;HTU21D;59343;51.102;5.884;2022-10-17T16:49:03;19.47;83.92
71523;HTU21D;59343;51.102;5.884;2022-10-17T16:51:30;19.45;84.04
71523;HTU21D;59343;51.102;5.884;2022-10-17T16:53:58;19.41;84.14
71523;HTU21D;59343;51.102;5.884;2022-10-17T16:56:25;19.40;84.10
71523;HTU21D;59343;51.102;5.884;2022-10-17T16:58:54;19.36;84.27
71523;HTU21D;59343;51.102;5.884;2022-10-17T17:01:23;19.32;84.35
71523;HTU21D;59343;51.102;5.884;2022-10-17T17:03:50;19.30;84.39
71523;HTU21D;59343;51.102;5.884;2022-10-17T17:06:19;19.28;84.52
71523;HTU21D;59343;51.102;5.884;2022-10-17T17:08:45;19.27;84.53
71523;HTU21D;59343;51.102;5.884;2022-10-17T17:11:13;19.25;84.52
71523;HTU21D;59343;51.102;5.884;2022-10-17T17:13:40;19.23;84.36
71523;HTU21D;59343;51.102;5.884;2022-10-17T17:16:12;19.20;84.35
71523;HTU21D;59343;51.102;5.884;2022-10-17T17:18:39;19.17;84.34
71523;HTU21D;59343;51.102;5.884;2022-10-17T17:21:07;19.14;84.34
71523;HTU21D;59343;51.102;5.884;2022-10-17T17:23:36;19.11;84.25
71523;HTU21D;59343;51.102;5.884;2022-10-17T17:26:08;19.08;84.30
71523;HTU21D;59343;51.102;5.884;2022-10-17T17:28:35;19.07;84.17
71523;HTU21D;59343;51.102;5.884;2022-10-17T17:31:01;19.05;84.15
71523;HTU21D;59343;51.102;5.884;2022-10-17T17:33:27;19.00;84.27
71523;HTU21D;59343;51.102;5.884;2022-10-17T17:35:59;19.00;84.36
71523;HTU21D;59343;51.102;5.884;2022-10-17T17:38:28;19.00;84.18
71523;HTU21D;59343;51.102;5.884;2022-10-17T17:40:54;18.99;83.92
71523;HTU21D;59343;51.102;5.884;2022-10-17T17:43:20;18.98;83.63
71523;HTU21D;59343;51.102;5.884;2022-10-17T17:45:46;18.95;83.48